sensor_id;sensor_type;location;lat;lon;timestamp;pressure;altitude;pressure_sealevel;temperature;humidity
52745;BME280;38637;49.984;20.426;2022-09-09T00:04:41;98956.19;;;19.46;92.83
52745;BME280;38637;49.984;20.426;2022-09-09T00:10:22;98956.69;;;19.48;93.11
52745;BME280;38637;49.984;20.426;2022-09-09T00:14:55;98950.19;;;19.44;93.45
52745;BME280;38637;49.984;20.426;2022-09-09T00:17:25;98958.00;;;19.42;93.12
52745;BME280;38637;49.984;20.426;2022-09-09T00:19:57;98955.91;;;19.39;93.55
52745;BME280;38637;49.984;20.426;2022-09-09T00:22:25;98954.28;;;19.38;93.68
52745;BME280;38637;49.984;20.426;2022-09-09T00:24:53;98947.91;;;19.37;93.85
52745;BME280;38637;49.984;20.426;2022-09-09T00:27:25;98954.28;;;19.38;93.87
52745;BME280;38637;49.984;20.426;2022-09-09T00:32:22;98966.50;;;19.37;93.62
52745;BME280;38637;49.984;20.426;2022-09-09T00:34:51;98959.00;;;19.37;93.92
52745;BME280;38637;49.984;20.426;2022-09-09T00:37:18;98957.06;;;19.38;94.00
52745;BME280;38637;49.984;20.426;2022-09-09T00:39:46;98962.09;;;19.36;93.61
52745;BME280;38637;49.984;20.426;2022-09-09T00:44:48;98964.38;;;19.34;93.53
52745;BME280;38637;49.984;20.426;2022-09-09T00:52:49;98970.56;;;19.31;93.03
52745;BME280;38637;49.984;20.426;2022-09-09T00:55:20;98980.03;;;19.29;92.64
52745;BME280;38637;49.984;20.426;2022-09-09T00:57:51;98982.00;;;19.29;92.78
52745;BME280;38637;49.984;20.426;2022-09-09T01:00:30;98985.56;;;19.29;92.84
52745;BME280;38637;49.984;20.426;2022-09-09T01:03:00;98988.34;;;19.29;92.44
52745;BME280;38637;49.984;20.426;2022-09-09T01:07:56;98979.53;;;19.27;92.42
52745;BME280;38637;49.984;20.426;2022-09-09T01:10:29;98983.47;;;19.26;92.26
52745;BME280;38637;49.984;20.426;2022-09-09T01:12:56;98981.84;;;19.25;92.29
52745;BME280;38637;49.984;20.426;2022-09-09T01:15:25;98990.16;;;19.25;92.37
52745;BME280;38637;49.984;20.426;2022-09-09T01:17:53;98997.63;;;19.25;91.96
52745;BME280;38637;49.984;20.426;2022-09-09T01:20:23;98993.56;;;19.22;91.98
52745;BME280;38637;49.984;20.426;2022-09-09T01:23:10;98998.94;;;19.19;92.07
52745;BME280;38637;49.984;20.426;2022-09-09T01:28:10;99004.00;;;19.17;92.29
52745;BME280;38637;49.984;20.426;2022-09-09T01:30:39;99004.31;;;19.15;91.98
52745;BME280;38637;49.984;20.426;2022-09-09T01:33:05;99007.41;;;19.14;91.96
52745;BME280;38637;49.984;20.426;2022-09-09T01:35:36;99008.22;;;19.14;92.12
52745;BME280;38637;49.984;20.426;2022-09-09T01:38:03;98999.44;;;19.12;91.97
52745;BME280;38637;49.984;20.426;2022-09-09T01:40:28;99003.00;;;19.13;91.95
52745;BME280;38637;49.984;20.426;2022-09-09T01:42:54;99008.06;;;19.11;92.04
52745;BME280;38637;49.984;20.426;2022-09-09T01:45:19;99008.53;;;19.13;92.07
52745;BME280;38637;49.984;20.426;2022-09-09T01:47:46;99007.25;;;19.10;92.07
52745;BME280;38637;49.984;20.426;2022-09-09T01:50:12;99017.50;;;19.10;92.13
52745;BME280;38637;49.984;20.426;2022-09-09T01:52:39;99015.06;;;19.08;92.28
52745;BME280;38637;49.984;20.426;2022-09-09T01:55:04;99023.69;;;19.06;92.04
52745;BME280;38637;49.984;20.426;2022-09-09T01:57:31;99030.88;;;19.08;92.15
52745;BME280;38637;49.984;20.426;2022-09-09T02:02:26;99028.25;;;19.02;92.08
52745;BME280;38637;49.984;20.426;2022-09-09T02:04:56;99038.53;;;19.02;92.33
52745;BME280;38637;49.984;20.426;2022-09-09T02:07:40;99027.44;;;19.02;92.43
52745;BME280;38637;49.984;20.426;2022-09-09T02:10:16;99032.50;;;19.00;92.27
52745;BME280;38637;49.984;20.426;2022-09-09T02:12:45;99044.69;;;18.99;92.23
52745;BME280;38637;49.984;20.426;2022-09-09T02:15:17;99035.59;;;18.98;92.13
52745;BME280;38637;49.984;20.426;2022-09-09T02:17:44;99050.25;;;18.99;92.43
52745;BME280;38637;49.984;20.426;2022-09-09T02:20:12;99054.16;;;18.98;92.11
52745;BME280;38637;49.984;20.426;2022-09-09T02:22:38;99047.78;;;18.97;91.91
52745;BME280;38637;49.984;20.426;2022-09-09T02:25:05;99055.28;;;18.97;91.84
52745;BME280;38637;49.984;20.426;2022-09-09T02:27:32;99052.03;;;18.95;91.80
52745;BME280;38637;49.984;20.426;2022-09-09T02:29:57;99053.16;;;18.94;91.64
52745;BME280;38637;49.984;20.426;2022-09-09T02:32:25;99050.38;;;18.94;91.57
52745;BME280;38637;49.984;20.426;2022-09-09T02:34:55;99054.31;;;18.93;91.32
52745;BME280;38637;49.984;20.426;2022-09-09T02:37:22;99047.16;;;18.92;91.44
52745;BME280;38637;49.984;20.426;2022-09-09T02:39:50;99049.41;;;18.90;91.49
52745;BME280;38637;49.984;20.426;2022-09-09T02:42:15;99049.41;;;18.90;91.27
52745;BME280;38637;49.984;20.426;2022-09-09T02:44:40;99062.75;;;18.88;91.41
52745;BME280;38637;49.984;20.426;2022-09-09T02:47:13;99064.72;;;18.87;91.35
52745;BME280;38637;49.984;20.426;2022-09-09T02:52:14;99063.09;;;18.86;91.06
52745;BME280;38637;49.984;20.426;2022-09-09T02:54:41;99079.69;;;18.86;91.17
52745;BME280;38637;49.984;20.426;2022-09-09T02:59:50;99077.06;;;18.81;90.71
52745;BME280;38637;49.984;20.426;2022-09-09T03:02:17;99078.06;;;18.76;90.82
52745;BME280;38637;49.984;20.426;2022-09-09T03:04:43;99083.91;;;18.75;91.09
52745;BME280;38637;49.984;20.426;2022-09-09T03:07:09;99086.16;;;18.73;90.82
52745;BME280;38637;49.984;20.426;2022-09-09T03:09:34;99080.13;;;18.71;90.70
52745;BME280;38637;49.984;20.426;2022-09-09T03:12:00;99089.06;;;18.68;90.76
52745;BME280;38637;49.984;20.426;2022-09-09T03:14:25;99091.34;;;18.66;90.64
52745;BME280;38637;49.984;20.426;2022-09-09T03:16:51;99090.03;;;18.63;90.58
52745;BME280;38637;49.984;20.426;2022-09-09T03:19:16;99091.47;;;18.60;90.40
52745;BME280;38637;49.984;20.426;2022-09-09T03:21:43;99083.81;;;18.57;90.34
52745;BME280;38637;49.984;20.426;2022-09-09T03:24:08;99088.53;;;18.57;90.38
52745;BME280;38637;49.984;20.426;2022-09-09T03:26:34;99089.53;;;18.52;90.11
52745;BME280;38637;49.984;20.426;2022-09-09T03:28:59;99084.31;;;18.51;90.29
52745;BME280;38637;49.984;20.426;2022-09-09T03:31:25;99082.50;;;18.46;90.21
52745;BME280;38637;49.984;20.426;2022-09-09T03:33:51;99091.13;;;18.45;90.22
52745;BME280;38637;49.984;20.426;2022-09-09T03:36:16;99081.50;;;18.42;90.32
52745;BME280;38637;49.984;20.426;2022-09-09T03:38:41;99086.22;;;18.42;90.21
52745;BME280;38637;49.984;20.426;2022-09-09T03:41:07;99087.69;;;18.39;90.25
52745;BME280;38637;49.984;20.426;2022-09-09T03:43:32;99088.81;;;18.38;90.13
52745;BME280;38637;49.984;20.426;2022-09-09T03:45:58;99097.25;;;18.33;90.15
52745;BME280;38637;49.984;20.426;2022-09-09T03:48:23;99082.13;;;18.30;90.30
52745;BME280;38637;49.984;20.426;2022-09-09T03:50:50;99096.28;;;18.29;90.23
52745;BME280;38637;49.984;20.426;2022-09-09T03:53:17;99107.63;;;18.27;90.15
52745;BME280;38637;49.984;20.426;2022-09-09T03:55:46;99113.16;;;18.27;90.15
52745;BME280;38637;49.984;20.426;2022-09-09T03:58:12;99107.47;;;18.24;90.09
52745;BME280;38637;49.984;20.426;2022-09-09T04:00:38;99108.59;;;18.23;90.07
52745;BME280;38637;49.984;20.426;2022-09-09T04:03:07;99107.78;;;18.22;89.96
52745;BME280;38637;49.984;20.426;2022-09-09T04:05:32;99098.69;;;18.22;89.78
52745;BME280;38637;49.984;20.426;2022-09-09T04:07:59;99113.16;;;18.19;89.84
52745;BME280;38637;49.984;20.426;2022-09-09T04:10:24;99112.31;;;18.18;89.77
52745;BME280;38637;49.984;20.426;2022-09-09T04:12:49;99107.91;;;18.17;89.76
52745;BME280;38637;49.984;20.426;2022-09-09T04:15:14;99112.63;;;18.17;89.68
52745;BME280;38637;49.984;20.426;2022-09-09T04:17:39;99111.81;;;18.16;89.70
52745;BME280;38637;49.984;20.426;2022-09-09T04:20:05;99122.88;;;18.16;89.68
52745;BME280;38637;49.984;20.426;2022-09-09T04:22:31;99121.88;;;18.12;89.50
52745;BME280;38637;49.984;20.426;2022-09-09T04:24:57;99122.72;;;18.12;89.58
52745;BME280;38637;49.984;20.426;2022-09-09T04:27:22;99121.88;;;18.12;89.66
52745;BME280;38637;49.984;20.426;2022-09-09T04:29:47;99119.75;;;18.09;89.71
52745;BME280;38637;49.984;20.426;2022-09-09T04:32:12;99111.78;;;18.07;89.69
52745;BME280;38637;49.984;20.426;2022-09-09T04:34:37;99110.63;;;18.08;89.63
52745;BME280;38637;49.984;20.426;2022-09-09T04:37:03;99113.75;;;18.07;89.52
52745;BME280;38637;49.984;20.426;2022-09-09T04:39:28;99120.06;;;18.07;89.60
52745;BME280;38637;49.984;20.426;2022-09-09T04:41:53;99120.38;;;18.06;89.70
52745;BME280;38637;49.984;20.426;2022-09-09T04:44:18;99118.94;;;18.08;89.55
52745;BME280;38637;49.984;20.426;2022-09-09T04:46:44;99121.88;;;18.12;89.47
52745;BME280;38637;49.984;20.426;2022-09-09T04:49:10;99114.09;;;18.14;89.33
52745;BME280;38637;49.984;20.426;2022-09-09T04:51:35;99087.38;;;18.01;89.16
52745;BME280;38637;49.984;20.426;2022-09-09T04:54:00;99124.50;;;18.17;89.11
52745;BME280;38637;49.984;20.426;2022-09-09T04:56:25;99115.91;;;18.19;89.06
52745;BME280;38637;49.984;20.426;2022-09-09T04:58:52;99117.53;;;18.20;88.92
52745;BME280;38637;49.984;20.426;2022-09-09T05:01:20;99117.41;;;18.25;88.83
52745;BME280;38637;49.984;20.426;2022-09-09T05:03:46;99123.56;;;18.30;88.58
52745;BME280;38637;49.984;20.426;2022-09-09T05:06:17;99122.97;;;18.33;88.50
52745;BME280;38637;49.984;20.426;2022-09-09T05:08:42;99126.22;;;18.35;88.39
52745;BME280;38637;49.984;20.426;2022-09-09T05:13:40;99128.19;;;18.44;88.28
52745;BME280;38637;49.984;20.426;2022-09-09T05:16:05;99133.91;;;18.47;88.31
52745;BME280;38637;49.984;20.426;2022-09-09T05:18:30;99129.84;;;18.53;88.10
52745;BME280;38637;49.984;20.426;2022-09-09T05:20:59;99133.81;;;18.61;87.80
52745;BME280;38637;49.984;20.426;2022-09-09T05:23:25;99127.16;;;18.71;87.43
52745;BME280;38637;49.984;20.426;2022-09-09T05:25:54;99128.84;;;18.80;87.11
52745;BME280;38637;49.984;20.426;2022-09-09T05:28:20;99129.16;;;18.88;86.71
52745;BME280;38637;49.984;20.426;2022-09-09T05:30:45;99130.78;;;18.97;86.60
52745;BME280;38637;49.984;20.426;2022-09-09T05:33:10;99130.81;;;19.06;86.31
52745;BME280;38637;49.984;20.426;2022-09-09T05:35:36;99137.16;;;19.15;85.92
52745;BME280;38637;49.984;20.426;2022-09-09T05:38:02;99127.41;;;19.26;85.38
52745;BME280;38637;49.984;20.426;2022-09-09T05:40:28;99126.94;;;19.33;85.00
52745;BME280;38637;49.984;20.426;2022-09-09T05:42:53;99123.50;;;19.36;83.62
52745;BME280;38637;49.984;20.426;2022-09-09T05:45:18;99129.19;;;19.40;83.64
52745;BME280;38637;49.984;20.426;2022-09-09T05:47:44;99130.84;;;19.41;83.41
52745;BME280;38637;49.984;20.426;2022-09-09T05:50:09;99133.44;;;19.46;83.77
52745;BME280;38637;49.984;20.426;2022-09-09T05:52:35;99132.78;;;19.49;82.54
52745;BME280;38637;49.984;20.426;2022-09-09T05:55:00;99134.44;;;19.50;83.04
52745;BME280;38637;49.984;20.426;2022-09-09T05:57:25;99139.97;;;19.50;82.69
52745;BME280;38637;49.984;20.426;2022-09-09T05:59:50;99145.16;;;19.51;82.56
52745;BME280;38637;49.984;20.426;2022-09-09T06:02:15;99140.78;;;19.50;82.89
52745;BME280;38637;49.984;20.426;2022-09-09T06:04:41;99145.50;;;19.50;82.46
52745;BME280;38637;49.984;20.426;2022-09-09T06:07:06;99146.97;;;19.47;82.71
52745;BME280;38637;49.984;20.426;2022-09-09T06:09:32;99153.97;;;19.45;83.21
52745;BME280;38637;49.984;20.426;2022-09-09T06:11:57;99149.41;;;19.40;83.00
52745;BME280;38637;49.984;20.426;2022-09-09T06:14:24;99146.97;;;19.39;83.44
52745;BME280;38637;49.984;20.426;2022-09-09T06:16:50;99140.63;;;19.38;83.65
52745;BME280;38637;49.984;20.426;2022-09-09T06:19:15;99144.19;;;19.39;83.61
52745;BME280;38637;49.984;20.426;2022-09-09T06:21:41;99144.84;;;19.36;83.58
52745;BME280;38637;49.984;20.426;2022-09-09T06:24:07;99154.63;;;19.33;83.74
52745;BME280;38637;49.984;20.426;2022-09-09T06:26:33;99156.06;;;19.31;83.86
52745;BME280;38637;49.984;20.426;2022-09-09T06:28:59;99156.06;;;19.31;83.53
52745;BME280;38637;49.984;20.426;2022-09-09T06:31:26;99155.91;;;19.27;83.47
52745;BME280;38637;49.984;20.426;2022-09-09T06:33:53;99161.78;;;19.25;82.90
52745;BME280;38637;49.984;20.426;2022-09-09T06:36:24;99158.19;;;19.25;83.41
52745;BME280;38637;49.984;20.426;2022-09-09T06:38:49;99153.00;;;19.32;83.57
52745;BME280;38637;49.984;20.426;2022-09-09T06:41:15;99156.09;;;19.48;82.71
52745;BME280;38637;49.984;20.426;2022-09-09T06:43:41;99161.63;;;19.57;82.28
52745;BME280;38637;49.984;20.426;2022-09-09T06:46:16;99156.25;;;19.60;80.45
52745;BME280;38637;49.984;20.426;2022-09-09T06:48:42;99150.88;;;19.64;80.78
52745;BME280;38637;49.984;20.426;2022-09-09T06:53:46;99157.25;;;19.73;80.37
52745;BME280;38637;49.984;20.426;2022-09-09T06:56:19;99167.81;;;19.80;79.88
52745;BME280;38637;49.984;20.426;2022-09-09T06:58:46;99162.63;;;19.87;80.69
52745;BME280;38637;49.984;20.426;2022-09-09T07:01:15;99158.69;;;19.88;80.28
52745;BME280;38637;49.984;20.426;2022-09-09T07:03:41;99169.94;;;19.91;80.05
52745;BME280;38637;49.984;20.426;2022-09-09T07:06:13;99171.88;;;19.91;79.15
52745;BME280;38637;49.984;20.426;2022-09-09T07:08:39;99175.63;;;19.95;79.29
52745;BME280;38637;49.984;20.426;2022-09-09T07:11:05;99167.63;;;20.02;79.76
52745;BME280;38637;49.984;20.426;2022-09-09T07:13:31;99177.22;;;20.05;78.94
52745;BME280;38637;49.984;20.426;2022-09-09T07:16:03;99173.34;;;20.06;78.48
52745;BME280;38637;49.984;20.426;2022-09-09T07:18:29;99161.75;;;20.04;78.06
52745;BME280;38637;49.984;20.426;2022-09-09T07:20:55;99174.47;;;20.05;77.93
52745;BME280;38637;49.984;20.426;2022-09-09T07:23:22;99174.13;;;20.06;78.05
52745;BME280;38637;49.984;20.426;2022-09-09T07:25:47;99173.00;;;20.07;77.62
52745;BME280;38637;49.984;20.426;2022-09-09T07:28:12;99175.09;;;20.10;77.90
52745;BME280;38637;49.984;20.426;2022-09-09T07:30:38;99176.09;;;20.14;77.17
52745;BME280;38637;49.984;20.426;2022-09-09T07:33:03;99173.78;;;20.16;77.56
52745;BME280;38637;49.984;20.426;2022-09-09T07:35:28;99162.66;;;20.25;77.85
52745;BME280;38637;49.984;20.426;2022-09-09T07:37:54;99169.16;;;20.38;77.50
52745;BME280;38637;49.984;20.426;2022-09-09T07:40:19;99167.50;;;20.46;76.78
52745;BME280;38637;49.984;20.426;2022-09-09T07:42:46;99170.75;;;20.48;75.72
52745;BME280;38637;49.984;20.426;2022-09-09T07:45:11;99176.63;;;20.55;75.84
52745;BME280;38637;49.984;20.426;2022-09-09T07:47:37;99175.75;;;20.63;76.13
52745;BME280;38637;49.984;20.426;2022-09-09T07:50:02;99177.03;;;20.74;76.07
52745;BME280;38637;49.984;20.426;2022-09-09T07:52:27;99175.50;;;20.85;74.97
52745;BME280;38637;49.984;20.426;2022-09-09T07:54:53;99184.91;;;20.93;74.93
52745;BME280;38637;49.984;20.426;2022-09-09T07:57:18;99186.34;;;20.99;72.71
52745;BME280;38637;49.984;20.426;2022-09-09T07:59:43;99174.44;;;20.99;72.20
52745;BME280;38637;49.984;20.426;2022-09-09T08:02:09;99174.44;;;20.99;73.35
52745;BME280;38637;49.984;20.426;2022-09-09T08:04:34;99175.41;;;21.03;73.23
52745;BME280;38637;49.984;20.426;2022-09-09T08:07:00;99183.66;;;21.11;73.50
52745;BME280;38637;49.984;20.426;2022-09-09T08:09:28;99185.78;;;21.15;73.37
52745;BME280;38637;49.984;20.426;2022-09-09T08:11:54;99184.97;;;21.14;74.37
52745;BME280;38637;49.984;20.426;2022-09-09T08:14:21;99177.31;;;21.11;73.26
52745;BME280;38637;49.984;20.426;2022-09-09T08:16:48;99178.13;;;21.11;71.53
52745;BME280;38637;49.984;20.426;2022-09-09T08:19:14;99184.50;;;21.12;72.50
52745;BME280;38637;49.984;20.426;2022-09-09T08:21:43;99182.06;;;21.10;72.26
52745;BME280;38637;49.984;20.426;2022-09-09T08:24:09;99199.66;;;21.15;72.66
52745;BME280;38637;49.984;20.426;2022-09-09T08:26:39;99196.69;;;21.20;72.12
52745;BME280;38637;49.984;20.426;2022-09-09T08:29:05;99200.09;;;21.25;72.45
52745;BME280;38637;49.984;20.426;2022-09-09T08:31:35;99195.16;;;21.31;71.79
52745;BME280;38637;49.984;20.426;2022-09-09T08:34:02;99205.78;;;21.29;69.02
52745;BME280;38637;49.984;20.426;2022-09-09T08:36:29;99196.16;;;21.26;69.73
52745;BME280;38637;49.984;20.426;2022-09-09T08:38:56;99191.28;;;21.23;70.11
52745;BME280;38637;49.984;20.426;2022-09-09T08:43:50;99202.13;;;21.16;71.04
52745;BME280;38637;49.984;20.426;2022-09-09T08:46:36;99190.19;;;21.16;69.45
52745;BME280;38637;49.984;20.426;2022-09-09T08:49:06;99195.75;;;21.16;71.07
52745;BME280;38637;49.984;20.426;2022-09-09T08:51:38;99203.59;;;21.14;71.42
52745;BME280;38637;49.984;20.426;2022-09-09T08:54:04;99213.09;;;21.13;69.17
52745;BME280;38637;49.984;20.426;2022-09-09T08:56:30;99209.81;;;21.10;69.23
52745;BME280;38637;49.984;20.426;2022-09-09T08:58:56;99211.78;;;21.10;68.92
52745;BME280;38637;49.984;20.426;2022-09-09T09:04:06;99209.16;;;21.14;70.32
52745;BME280;38637;49.984;20.426;2022-09-09T09:06:46;99206.19;;;21.19;68.80
52745;BME280;38637;49.984;20.426;2022-09-09T09:09:31;99213.84;;;21.22;67.49
52745;BME280;38637;49.984;20.426;2022-09-09T09:12:01;99206.81;;;21.24;68.54
52745;BME280;38637;49.984;20.426;2022-09-09T09:14:30;99197.94;;;21.31;69.13
52745;BME280;38637;49.984;20.426;2022-09-09T09:19:31;99203.25;;;21.45;68.83
52745;BME280;38637;49.984;20.426;2022-09-09T09:22:03;99207.13;;;21.52;67.99
52745;BME280;38637;49.984;20.426;2022-09-09T09:24:40;99203.13;;;21.62;68.47
52745;BME280;38637;49.984;20.426;2022-09-09T09:27:15;99215.59;;;21.77;69.73
52745;BME280;38637;49.984;20.426;2022-09-09T09:29:41;99209.34;;;21.80;65.20
52745;BME280;38637;49.984;20.426;2022-09-09T09:32:09;99219.22;;;21.90;66.49
52745;BME280;38637;49.984;20.426;2022-09-09T09:34:37;99206.88;;;21.99;65.63
52745;BME280;38637;49.984;20.426;2022-09-09T09:37:07;99207.28;;;22.10;65.09
52745;BME280;38637;49.984;20.426;2022-09-09T09:39:37;99203.03;;;22.25;64.46
52745;BME280;38637;49.984;20.426;2022-09-09T09:42:10;99193.22;;;22.40;64.82
52745;BME280;38637;49.984;20.426;2022-09-09T09:44:38;99195.09;;;22.48;64.15
52745;BME280;38637;49.984;20.426;2022-09-09T09:47:08;99203.47;;;22.60;64.28
52745;BME280;38637;49.984;20.426;2022-09-09T09:49:34;99206.47;;;22.67;63.65
52745;BME280;38637;49.984;20.426;2022-09-09T09:52:05;99199.63;;;22.77;63.73
52745;BME280;38637;49.984;20.426;2022-09-09T09:54:41;99199.78;;;22.81;62.19
52745;BME280;38637;49.984;20.426;2022-09-09T09:57:14;99195.94;;;22.73;63.34
52745;BME280;38637;49.984;20.426;2022-09-09T09:59:40;99211.25;;;22.67;62.34
52745;BME280;38637;49.984;20.426;2022-09-09T10:02:19;99209.25;;;22.67;63.22
52745;BME280;38637;49.984;20.426;2022-09-09T10:04:46;99206.16;;;22.69;63.28
52745;BME280;38637;49.984;20.426;2022-09-09T10:07:15;99200.34;;;22.74;63.27
52745;BME280;38637;49.984;20.426;2022-09-09T10:09:42;99195.34;;;22.80;62.97
52745;BME280;38637;49.984;20.426;2022-09-09T10:17:24;99176.22;;;22.78;60.13
52745;BME280;38637;49.984;20.426;2022-09-09T10:19:56;99195.50;;;22.96;60.31
52745;BME280;38637;49.984;20.426;2022-09-09T10:25:13;99199.66;;;23.02;58.53
52745;BME280;38637;49.984;20.426;2022-09-09T10:30:10;99189.34;;;23.14;59.25
52745;BME280;38637;49.984;20.426;2022-09-09T10:32:41;99188.50;;;23.26;58.88
52745;BME280;38637;49.984;20.426;2022-09-09T10:38:15;99184.19;;;23.29;57.23
52745;BME280;38637;49.984;20.426;2022-09-09T10:46:27;99189.25;;;23.63;57.17
52745;BME280;38637;49.984;20.426;2022-09-09T10:54:29;99184.34;;;24.01;55.97
52745;BME280;38637;49.984;20.426;2022-09-09T10:57:00;99184.81;;;24.03;55.26
52745;BME280;38637;49.984;20.426;2022-09-09T10:59:29;99188.84;;;24.05;53.44
52745;BME280;38637;49.984;20.426;2022-09-09T11:02:05;99186.44;;;24.04;54.89
52745;BME280;38637;49.984;20.426;2022-09-09T11:04:42;99186.44;;;24.04;55.04
52745;BME280;38637;49.984;20.426;2022-09-09T11:07:10;99183.91;;;23.99;54.43
52745;BME280;38637;49.984;20.426;2022-09-09T11:09:39;99182.75;;;24.00;54.87
52745;BME280;38637;49.984;20.426;2022-09-09T11:12:05;99193.25;;;23.91;53.98
52745;BME280;38637;49.984;20.426;2022-09-09T11:14:36;99193.28;;;23.78;55.20
52745;BME280;38637;49.984;20.426;2022-09-09T11:17:10;99174.84;;;23.61;53.94
52745;BME280;38637;49.984;20.426;2022-09-09T11:19:40;99199.13;;;23.73;54.76
52745;BME280;38637;49.984;20.426;2022-09-09T11:22:07;99190.38;;;23.75;54.25
52745;BME280;38637;49.984;20.426;2022-09-09T11:25:26;99190.84;;;23.77;53.63
52745;BME280;38637;49.984;20.426;2022-09-09T11:41:04;99170.16;;;23.25;55.15
52745;BME280;38637;49.984;20.426;2022-09-09T11:43:32;99184.91;;;23.26;54.87
52745;BME280;38637;49.984;20.426;2022-09-09T11:46:02;99188.66;;;23.17;55.69
52745;BME280;38637;49.984;20.426;2022-09-09T11:50:57;99180.84;;;23.23;55.40
52745;BME280;38637;49.984;20.426;2022-09-09T11:53:23;99181.19;;;23.34;55.20
52745;BME280;38637;49.984;20.426;2022-09-09T11:56:10;99175.91;;;23.45;55.12
52745;BME280;38637;49.984;20.426;2022-09-09T11:58:36;99175.66;;;23.62;53.85
52745;BME280;38637;49.984;20.426;2022-09-09T12:01:12;99180.06;;;23.75;53.45
52745;BME280;38637;49.984;20.426;2022-09-09T12:03:47;99190.69;;;23.85;51.04
52745;BME280;38637;49.984;20.426;2022-09-09T12:08:40;99188.38;;;23.88;51.34
52745;BME280;38637;49.984;20.426;2022-09-09T12:11:07;99190.47;;;23.91;52.34
52745;BME280;38637;49.984;20.426;2022-09-09T12:13:32;99185.31;;;23.93;50.90
52745;BME280;38637;49.984;20.426;2022-09-09T12:15:59;99185.88;;;23.98;51.61
52745;BME280;38637;49.984;20.426;2022-09-09T12:18:25;99186.44;;;24.04;50.91
52745;BME280;38637;49.984;20.426;2022-09-09T12:33:47;99176.56;;;24.22;51.52
52745;BME280;38637;49.984;20.426;2022-09-09T12:36:16;99181.19;;;24.30;51.22
52745;BME280;38637;49.984;20.426;2022-09-09T12:38:44;99177.84;;;24.41;50.09
52745;BME280;38637;49.984;20.426;2022-09-09T12:41:26;99173.66;;;24.47;49.75
52745;BME280;38637;49.984;20.426;2022-09-09T12:43:51;99178.06;;;24.48;46.56
52745;BME280;38637;49.984;20.426;2022-09-09T12:46:33;99176.63;;;24.54;48.78
52745;BME280;38637;49.984;20.426;2022-09-09T12:49:01;99173.91;;;24.58;48.24
52745;BME280;38637;49.984;20.426;2022-09-09T12:51:28;99175.63;;;24.62;48.65
52745;BME280;38637;49.984;20.426;2022-09-09T12:53:54;99174.84;;;24.62;49.48
52745;BME280;38637;49.984;20.426;2022-09-09T12:56:23;99176.72;;;24.58;49.43
52745;BME280;38637;49.984;20.426;2022-09-09T12:58:51;99166.63;;;24.53;49.65
52745;BME280;38637;49.984;20.426;2022-09-09T13:01:20;99177.81;;;24.53;50.15
52745;BME280;38637;49.984;20.426;2022-09-09T13:03:45;99175.63;;;24.46;49.02
52745;BME280;38637;49.984;20.426;2022-09-09T13:06:13;99175.56;;;24.43;50.21
52745;BME280;38637;49.984;20.426;2022-09-09T13:08:39;99182.06;;;24.35;51.69
52745;BME280;38637;49.984;20.426;2022-09-09T13:11:10;99176.41;;;24.31;50.63
52745;BME280;38637;49.984;20.426;2022-09-09T13:13:38;99173.63;;;24.31;51.79
52745;BME280;38637;49.984;20.426;2022-09-09T13:16:06;99171.00;;;24.38;51.64
52745;BME280;38637;49.984;20.426;2022-09-09T13:18:39;99167.50;;;24.41;49.34
52745;BME280;38637;49.984;20.426;2022-09-09T13:21:05;99167.19;;;24.43;50.04
52745;BME280;38637;49.984;20.426;2022-09-09T13:23:31;99162.13;;;24.48;50.60
52745;BME280;38637;49.984;20.426;2022-09-09T13:25:59;99162.94;;;24.49;49.78
52745;BME280;38637;49.984;20.426;2022-09-09T13:28:25;99168.06;;;24.47;49.88
52745;BME280;38637;49.984;20.426;2022-09-09T13:31:04;99159.78;;;24.50;49.18
52745;BME280;38637;49.984;20.426;2022-09-09T13:35:57;99150.34;;;24.55;49.09
52745;BME280;38637;49.984;20.426;2022-09-09T13:38:24;99149.88;;;24.53;48.55
52745;BME280;38637;49.984;20.426;2022-09-09T13:40:59;99135.94;;;24.53;48.56
52745;BME280;38637;49.984;20.426;2022-09-09T13:43:33;99147.44;;;24.51;47.86
52745;BME280;38637;49.984;20.426;2022-09-09T13:46:03;99145.91;;;24.54;49.23
52745;BME280;38637;49.984;20.426;2022-09-09T13:48:29;99145.19;;;24.57;49.57
52745;BME280;38637;49.984;20.426;2022-09-09T13:50:57;99141.25;;;24.58;48.30
52745;BME280;38637;49.984;20.426;2022-09-09T13:53:23;99134.41;;;24.56;49.29
52745;BME280;38637;49.984;20.426;2022-09-09T13:55:48;99129.88;;;24.51;49.67
52745;BME280;38637;49.984;20.426;2022-09-09T13:58:14;99128.28;;;24.50;49.97
52745;BME280;38637;49.984;20.426;2022-09-09T14:00:40;99137.44;;;24.50;50.31
52745;BME280;38637;49.984;20.426;2022-09-09T14:03:05;99139.91;;;24.52;50.94
52745;BME280;38637;49.984;20.426;2022-09-09T14:05:32;99128.72;;;24.52;51.54
52745;BME280;38637;49.984;20.426;2022-09-09T14:07:58;99138.72;;;24.53;48.81
52745;BME280;38637;49.984;20.426;2022-09-09T14:10:25;99132.41;;;24.56;49.52
52745;BME280;38637;49.984;20.426;2022-09-09T14:12:50;99135.28;;;24.60;49.43
52745;BME280;38637;49.984;20.426;2022-09-09T14:15:16;99126.56;;;24.61;49.49
52745;BME280;38637;49.984;20.426;2022-09-09T14:17:41;99131.78;;;24.63;47.86
52745;BME280;38637;49.984;20.426;2022-09-09T14:20:07;99135.38;;;24.63;48.33
52745;BME280;38637;49.984;20.426;2022-09-09T14:22:34;99134.22;;;24.64;48.73
52745;BME280;38637;49.984;20.426;2022-09-09T14:24:59;99123.78;;;24.61;46.73
52745;BME280;38637;49.984;20.426;2022-09-09T14:27:25;99120.53;;;24.59;47.64
52745;BME280;38637;49.984;20.426;2022-09-09T14:29:53;99122.94;;;24.61;48.00
52745;BME280;38637;49.984;20.426;2022-09-09T14:32:19;99120.06;;;24.57;46.93
52745;BME280;38637;49.984;20.426;2022-09-09T14:34:44;99122.84;;;24.57;48.61
52745;BME280;38637;49.984;20.426;2022-09-09T14:37:10;99119.63;;;24.55;48.95